Mason Dixon, Pennsylvania
Current Conditions -  °F | °C
As of 2:53 PM on Sunday 23 Nov 2014 (Local Time) from KHGR Reporting Station
Clear Clear  
Wind Chill: 55°   Ceiling: Unl
Heat Index: 55°   Visibility: 10mi
Dew Point: 24°   Wind: 7mph
Humidity: 30%   Direction: 180°S
Pressure: 30.05"   Gusts: NA
Location:  39.7874°N, 77.754°W
Report Text: KHGR 231953Z 18006KT 10SM CLR 13/M04 A3005 RMK AO2 SLP187 T01281044
Loading
Personal Weather Stations






























Interactive Weather Map New forecast layout! Learn more

10-Day Weather Forecast

Advertisements
Track Severe Weather on mobile